createdAt,value
2024-05-09T00:00:12.728Z,126.45
2024-05-09T00:01:09.066Z,126.51
2024-05-09T00:02:08.140Z,126.61
2024-05-09T00:03:09.143Z,126.77
2024-05-09T00:04:08.090Z,125.48
2024-05-09T00:05:08.130Z,127.03
2024-05-09T00:06:08.252Z,127.79
2024-05-09T00:07:08.057Z,126.72
2024-05-09T00:08:08.069Z,124.91
2024-05-09T00:09:08.059Z,126.21
2024-05-09T00:10:11.828Z,125.49
2024-05-09T00:11:09.213Z,125.58
2024-05-09T00:12:08.424Z,125.55
2024-05-09T00:13:08.562Z,125.53
2024-05-09T00:14:08.140Z,126.34
2024-05-09T00:15:08.120Z,125.81
2024-05-09T00:16:08.127Z,125.57
2024-05-09T00:17:08.134Z,125.36
2024-05-09T00:18:08.633Z,125.43
2024-05-09T00:19:08.229Z,124.92
2024-05-09T00:20:14.409Z,125.24
2024-05-09T00:21:09.346Z,125.29
2024-05-09T00:22:08.131Z,125.46
2024-05-09T00:23:08.420Z,124.71
2024-05-09T00:24:08.134Z,125.12
2024-05-09T00:25:08.150Z,125.51
2024-05-09T00:26:08.242Z,125.34
2024-05-09T00:27:08.940Z,125.13
2024-05-09T00:28:08.162Z,123.67
2024-05-09T00:29:08.151Z,124.74
2024-05-09T00:30:11.579Z,126.17
2024-05-09T00:31:09.152Z,125.42
2024-05-09T00:32:08.287Z,125.48
2024-05-09T00:33:09.773Z,125.28
2024-05-09T00:34:08.349Z,124.83
2024-05-09T00:35:08.225Z,125.04
2024-05-09T00:36:08.158Z,126.06
2024-05-09T00:37:08.166Z,125.23
2024-05-09T00:38:08.358Z,124.45
2024-05-09T00:39:08.156Z,124.75
2024-05-09T00:40:15.342Z,125.60
2024-05-09T00:41:09.198Z,125.64
2024-05-09T00:42:08.175Z,124.69
2024-05-09T00:43:08.207Z,124.42
2024-05-09T00:44:08.191Z,124.95
2024-05-09T00:45:08.171Z,125.38
2024-05-09T00:46:08.177Z,124.64
2024-05-09T00:47:08.342Z,124.95
2024-05-09T00:48:09.634Z,125.72
2024-05-09T00:49:08.242Z,124.52
2024-05-09T00:50:12.890Z,124.16
2024-05-09T00:51:09.225Z,124.20
2024-05-09T00:52:08.184Z,124.16
2024-05-09T00:53:08.260Z,123.64
2024-05-09T00:54:08.193Z,125.25
2024-05-09T00:55:08.203Z,123.56
2024-05-09T00:56:08.241Z,123.03
2024-05-09T00:57:08.208Z,123.82
2024-05-09T00:58:08.187Z,122.99
2024-05-09T00:59:08.264Z,122.54
2024-05-09T01:00:22.132Z,124.15
2024-05-09T01:01:09.234Z,124.18
2024-05-09T01:02:08.246Z,124.25
2024-05-09T01:03:09.595Z,124.39
2024-05-09T01:04:08.308Z,124.57
2024-05-09T01:05:08.297Z,125.54
2024-05-09T01:06:08.205Z,124.18
2024-05-09T01:07:08.215Z,124.33
2024-05-09T01:08:08.795Z,124.41
2024-05-09T01:09:08.216Z,124.27
2024-05-09T01:10:14.111Z,124.52
2024-05-09T01:11:09.263Z,124.17
2024-05-09T01:12:08.433Z,124.21
2024-05-09T01:13:08.227Z,124.02
2024-05-09T01:14:08.251Z,124.41
2024-05-09T01:15:08.226Z,123.50
2024-05-09T01:16:08.240Z,124.07
2024-05-09T01:17:08.333Z,124.31
2024-05-09T01:18:08.300Z,123.65
2024-05-09T01:19:08.336Z,123.87
2024-05-09T01:20:10.916Z,124.14
2024-05-09T01:21:09.259Z,124.15
2024-05-09T01:22:08.251Z,124.16
2024-05-09T01:23:08.342Z,124.15
2024-05-09T01:24:08.238Z,123.25
2024-05-09T01:25:08.246Z,122.75
2024-05-09T01:26:08.265Z,123.60
2024-05-09T01:27:08.244Z,123.69
2024-05-09T01:28:08.252Z,122.09
2024-05-09T01:29:08.285Z,123.66
2024-05-09T01:30:11.915Z,122.61
2024-05-09T01:31:09.252Z,122.64
2024-05-09T01:32:08.376Z,122.68
2024-05-09T01:33:10.238Z,122.77
2024-05-09T01:34:08.258Z,122.69
2024-05-09T01:35:08.269Z,122.80
2024-05-09T01:36:08.272Z,122.93
2024-05-09T01:37:08.246Z,122.68
2024-05-09T01:38:08.296Z,123.09
2024-05-09T01:39:08.244Z,122.90
2024-05-09T01:40:12.268Z,123.17
2024-05-09T01:41:09.332Z,123.21
2024-05-09T01:42:08.263Z,123.13
2024-05-09T01:43:09.463Z,123.38
2024-05-09T01:44:08.328Z,123.60
2024-05-09T01:45:08.251Z,122.90
2024-05-09T01:46:08.262Z,123.17
2024-05-09T01:47:08.411Z,123.21
2024-05-09T01:48:08.576Z,122.68
2024-05-09T01:49:08.433Z,122.49
2024-05-09T01:50:10.791Z,122.12
2024-05-09T01:51:08.844Z,121.85
2024-05-09T01:52:08.642Z,122.96
2024-05-09T01:53:08.841Z,122.34
2024-05-09T01:54:08.758Z,122.26
2024-05-09T01:55:08.801Z,123.69
2024-05-09T01:56:08.885Z,122.02
2024-05-09T01:57:08.917Z,122.06
2024-05-09T01:58:09.112Z,121.06
2024-05-09T01:59:09.073Z,121.72
2024-05-09T02:00:10.320Z,121.50
2024-05-09T02:01:09.173Z,122.17
2024-05-09T02:02:09.323Z,121.50
2024-05-09T02:03:09.691Z,122.54
2024-05-09T02:04:09.418Z,120.69
2024-05-09T02:05:09.490Z,121.47
2024-05-09T02:06:09.505Z,121.50
2024-05-09T02:07:09.331Z,121.52
2024-05-09T02:08:09.351Z,121.55
2024-05-09T02:09:09.346Z,121.60
2024-05-09T02:10:16.192Z,121.91
2024-05-09T02:11:10.448Z,121.53
2024-05-09T02:12:09.521Z,121.79
2024-05-09T02:13:09.423Z,121.67
2024-05-09T02:14:09.402Z,122.20
2024-05-09T02:15:09.345Z,121.81
2024-05-09T02:16:09.348Z,121.19
2024-05-09T02:17:09.464Z,121.63
2024-05-09T02:18:09.510Z,121.07
2024-05-09T02:19:09.419Z,121.30
2024-05-09T02:20:13.263Z,120.87
2024-05-09T02:21:10.418Z,120.91
2024-05-09T02:22:09.358Z,120.90
2024-05-09T02:23:09.655Z,121.14
2024-05-09T02:24:09.362Z,120.89
2024-05-09T02:25:09.361Z,119.40
2024-05-09T02:26:09.400Z,122.46
2024-05-09T02:27:09.378Z,121.06
2024-05-09T02:28:09.355Z,121.02
2024-05-09T02:29:09.382Z,120.31
2024-05-09T02:30:18.541Z,121.23
2024-05-09T02:31:10.378Z,121.24
2024-05-09T02:32:09.464Z,120.33
2024-05-09T02:33:10.826Z,120.49
2024-05-09T02:34:09.452Z,120.49
2024-05-09T02:35:09.393Z,120.65
2024-05-09T02:36:09.369Z,121.19
2024-05-09T02:37:09.385Z,121.53
2024-05-09T02:38:09.539Z,120.58
2024-05-09T02:39:09.387Z,120.27
2024-05-09T02:40:14.373Z,121.81
2024-05-09T02:41:10.499Z,121.46
2024-05-09T02:42:09.397Z,121.46
2024-05-09T02:43:10.917Z,120.56
2024-05-09T02:44:09.427Z,120.40
2024-05-09T02:45:09.399Z,118.87
2024-05-09T02:46:09.388Z,119.71
2024-05-09T02:47:09.518Z,119.38
2024-05-09T02:48:09.469Z,121.08
2024-05-09T02:49:09.576Z,119.68
2024-05-09T02:50:13.272Z,119.29
2024-05-09T02:51:09.571Z,119.32
2024-05-09T02:52:09.466Z,119.40
2024-05-09T02:53:10.161Z,119.41
2024-05-09T02:54:09.458Z,119.93
2024-05-09T02:55:09.458Z,119.51
2024-05-09T02:56:09.527Z,119.20
2024-05-09T02:57:09.476Z,118.92
2024-05-09T02:58:09.596Z,120.68
2024-05-09T02:59:09.495Z,120.03
2024-05-09T03:00:15.228Z,119.02
2024-05-09T03:01:10.494Z,119.07
2024-05-09T03:02:09.576Z,119.19
2024-05-09T03:03:11.286Z,119.48
2024-05-09T03:04:09.547Z,119.06
2024-05-09T03:05:09.478Z,119.34
2024-05-09T03:06:09.477Z,119.17
2024-05-09T03:07:09.491Z,119.34
2024-05-09T03:08:09.709Z,119.58
2024-05-09T03:09:09.491Z,118.81
2024-05-09T03:10:18.222Z,118.95
2024-05-09T03:11:10.642Z,119.01
2024-05-09T03:12:09.586Z,119.16
2024-05-09T03:13:09.480Z,119.22
2024-05-09T03:14:09.529Z,119.28
2024-05-09T03:15:09.490Z,119.83
2024-05-09T03:16:09.506Z,118.29
2024-05-09T03:17:09.561Z,118.94
2024-05-09T03:18:09.882Z,118.41
2024-05-09T03:19:09.617Z,120.65
2024-05-09T03:20:16.906Z,118.64
2024-05-09T03:21:10.596Z,118.68
2024-05-09T03:22:09.496Z,118.77
2024-05-09T03:23:10.387Z,119.01
2024-05-09T03:24:09.700Z,116.92
2024-05-09T03:25:09.513Z,119.12
2024-05-09T03:26:09.576Z,119.09
2024-05-09T03:27:09.513Z,118.39
2024-05-09T03:28:09.509Z,119.01
2024-05-09T03:29:09.569Z,119.62
2024-05-09T03:30:10.026Z,118.48
2024-05-09T03:31:09.559Z,118.72
2024-05-09T03:32:09.578Z,118.34
2024-05-09T03:33:09.834Z,118.15
2024-05-09T03:34:09.693Z,117.95
2024-05-09T03:35:09.759Z,117.66
2024-05-09T03:36:11.188Z,118.46
2024-05-09T03:37:09.786Z,118.50
2024-05-09T03:38:10.025Z,117.97
2024-05-09T03:39:09.782Z,117.45
2024-05-09T03:40:17.514Z,117.20
2024-05-09T03:41:10.810Z,118.49
2024-05-09T03:42:09.789Z,117.51
2024-05-09T03:43:09.788Z,117.18
2024-05-09T03:44:09.864Z,116.62
2024-05-09T03:45:09.787Z,117.36
2024-05-09T03:46:09.797Z,118.51
2024-05-09T03:47:09.827Z,118.49
2024-05-09T03:48:10.140Z,117.90
2024-05-09T03:49:09.909Z,116.97
2024-05-09T03:50:18.026Z,116.15
2024-05-09T03:51:10.922Z,116.23
2024-05-09T03:52:09.814Z,116.26
2024-05-09T03:53:09.862Z,116.63
2024-05-09T03:54:09.802Z,116.18
2024-05-09T03:55:09.804Z,117.61
2024-05-09T03:56:09.889Z,117.30
2024-05-09T03:57:09.819Z,117.13
2024-05-09T03:58:09.814Z,117.22
2024-05-09T03:59:09.862Z,118.01
2024-05-09T04:00:17.627Z,117.21
2024-05-09T04:01:10.874Z,116.59
2024-05-09T04:02:09.908Z,117.25
2024-05-09T04:03:12.005Z,116.41
2024-05-09T04:04:09.850Z,117.46
2024-05-09T04:05:09.851Z,117.77
2024-05-09T04:06:09.829Z,117.38
2024-05-09T04:07:09.818Z,117.19
2024-05-09T04:08:10.573Z,116.21
2024-05-09T04:09:09.833Z,117.53
2024-05-09T04:10:17.000Z,116.88
2024-05-09T04:11:10.888Z,116.94
2024-05-09T04:12:10.008Z,117.02
2024-05-09T04:13:09.857Z,117.58
2024-05-09T04:14:09.936Z,116.78
2024-05-09T04:15:12.830Z,116.73
2024-05-09T04:16:09.833Z,116.91
2024-05-09T04:17:09.869Z,116.92
2024-05-09T04:18:10.012Z,117.39
2024-05-09T04:19:09.949Z,117.25
2024-05-09T04:20:12.506Z,116.54
2024-05-09T04:21:10.911Z,116.95
2024-05-09T04:22:09.879Z,117.24
2024-05-09T04:23:09.881Z,117.15
2024-05-09T04:24:09.843Z,117.17
2024-05-09T04:25:09.842Z,118.36
2024-05-09T04:26:09.928Z,116.62
2024-05-09T04:27:09.848Z,117.07
2024-05-09T04:28:09.846Z,115.62
2024-05-09T04:29:09.882Z,116.64
2024-05-09T04:30:18.378Z,117.39
2024-05-09T04:31:10.851Z,116.38
2024-05-09T04:32:18.193Z,50.00
2024-05-09T04:33:18.206Z,50.00
2024-05-09T04:34:18.185Z,50.00
2024-05-09T04:35:18.131Z,50.00
2024-05-09T04:36:18.097Z,50.00
2024-05-09T04:37:18.109Z,52.97
2024-05-09T04:38:18.206Z,50.56
2024-05-09T04:39:18.092Z,51.23
2024-05-09T04:40:27.659Z,50.61
2024-05-09T04:41:19.174Z,50.67
2024-05-09T04:42:18.113Z,50.84
2024-05-09T04:43:18.104Z,51.71
2024-05-09T04:44:18.150Z,51.12
2024-05-09T04:45:18.103Z,49.82
2024-05-09T04:46:18.106Z,50.09
2024-05-09T04:47:18.309Z,51.42
2024-05-09T04:48:18.285Z,50.00
2024-05-09T04:49:18.348Z,50.28
2024-05-09T04:50:29.004Z,50.63
2024-05-09T04:51:19.126Z,50.66
2024-05-09T04:52:18.130Z,50.76
2024-05-09T04:53:18.328Z,50.12
2024-05-09T04:54:26.227Z,48.70
2024-05-09T04:55:19.161Z,50.71
2024-05-09T04:56:18.151Z,50.79
2024-05-09T04:57:18.125Z,50.88
2024-05-09T04:58:18.129Z,48.75
2024-05-09T04:59:18.150Z,50.65
2024-05-09T05:00:25.783Z,50.84
2024-05-09T05:01:19.155Z,50.70
2024-05-09T05:02:18.232Z,50.87
2024-05-09T05:03:18.475Z,50.90
2024-05-09T05:04:18.434Z,51.17
2024-05-09T05:05:18.221Z,49.29
2024-05-09T05:06:18.141Z,51.41
2024-05-09T05:07:18.143Z,51.34
2024-05-09T05:08:19.145Z,52.74
2024-05-09T05:09:18.142Z,51.45
2024-05-09T05:10:25.288Z,51.15
2024-05-09T05:11:19.325Z,51.19
2024-05-09T05:12:18.292Z,51.48
2024-05-09T05:13:19.202Z,51.05
2024-05-09T05:14:18.210Z,51.76
2024-05-09T05:15:18.162Z,51.62
2024-05-09T05:16:18.159Z,52.71
2024-05-09T05:17:18.230Z,50.32
2024-05-09T05:18:18.946Z,50.89
2024-05-09T05:19:18.283Z,50.57
2024-05-09T05:20:27.379Z,50.00
2024-05-09T05:21:19.486Z,50.16
2024-05-09T05:22:18.177Z,50.46
2024-05-09T05:23:18.305Z,51.60
2024-05-09T05:24:18.179Z,50.48
2024-05-09T05:25:18.175Z,52.70
2024-05-09T05:26:18.236Z,51.51
2024-05-09T05:27:18.206Z,52.12
2024-05-09T05:28:18.193Z,51.72
2024-05-09T05:29:20.832Z,52.56
2024-05-09T05:30:25.030Z,51.71
2024-05-09T05:31:19.255Z,51.83
2024-05-09T05:32:18.416Z,52.14
2024-05-09T05:33:18.892Z,52.33
2024-05-09T05:34:18.189Z,51.54
2024-05-09T05:35:18.220Z,53.33
2024-05-09T05:36:18.196Z,53.68
2024-05-09T05:37:18.195Z,52.97
2024-05-09T05:38:18.297Z,51.62
2024-05-09T05:39:18.204Z,53.02
2024-05-09T05:40:27.990Z,50.77
2024-05-09T05:41:19.244Z,50.85
2024-05-09T05:42:18.209Z,51.27
2024-05-09T05:43:18.372Z,51.31
2024-05-09T05:44:18.255Z,50.75
2024-05-09T05:45:18.221Z,51.71
2024-05-09T05:46:18.208Z,52.23
2024-05-09T05:47:18.302Z,50.35
2024-05-09T05:48:18.909Z,50.46
2024-05-09T05:49:18.397Z,50.47
2024-05-09T05:50:27.294Z,50.45
2024-05-09T05:51:19.250Z,50.48
2024-05-09T05:52:18.237Z,51.03
2024-05-09T05:53:18.313Z,51.40
2024-05-09T05:54:18.240Z,52.22
2024-05-09T05:55:18.224Z,52.17
2024-05-09T05:56:18.255Z,52.59
2024-05-09T05:57:18.252Z,51.83
2024-05-09T05:58:18.230Z,51.62
2024-05-09T05:59:18.360Z,51.75
2024-05-09T06:00:29.121Z,52.32
2024-05-09T06:01:19.286Z,52.37
2024-05-09T06:02:18.366Z,52.55
2024-05-09T06:03:18.286Z,51.81
2024-05-09T06:04:18.290Z,52.30
2024-05-09T06:05:18.391Z,52.40
2024-05-09T06:06:18.269Z,51.66
2024-05-09T06:07:18.260Z,50.51
2024-05-09T06:08:18.300Z,53.62
2024-05-09T06:09:18.300Z,53.61
2024-05-09T06:10:25.182Z,51.54
2024-05-09T06:11:19.420Z,51.62
2024-05-09T06:12:18.355Z,51.58
2024-05-09T06:13:18.253Z,51.88
2024-05-09T06:14:18.379Z,52.82
2024-05-09T06:15:18.277Z,51.76
2024-05-09T06:16:18.281Z,51.01
2024-05-09T06:17:18.398Z,50.62
2024-05-09T06:18:18.615Z,53.50
2024-05-09T06:19:18.357Z,52.85
2024-05-09T06:20:23.990Z,51.70
2024-05-09T06:21:19.488Z,51.80
2024-05-09T06:22:18.269Z,51.71
2024-05-09T06:23:18.427Z,52.63
2024-05-09T06:24:18.275Z,50.63
2024-05-09T06:25:18.275Z,51.74
2024-05-09T06:26:18.407Z,53.98
2024-05-09T06:27:18.292Z,51.79
2024-05-09T06:28:18.282Z,54.17
2024-05-09T06:29:18.352Z,52.48
2024-05-09T06:31:18.282Z,54.20
2024-05-09T06:32:18.344Z,53.00
2024-05-09T06:33:18.596Z,53.13
2024-05-09T06:34:18.481Z,53.54
2024-05-09T06:35:18.400Z,54.60
2024-05-09T06:36:18.293Z,53.02
2024-05-09T06:37:18.325Z,52.43
2024-05-09T06:38:18.376Z,52.42
2024-05-09T06:39:18.296Z,50.00
2024-05-09T06:40:25.436Z,54.28
2024-05-09T06:41:19.391Z,54.32
2024-05-09T06:42:18.312Z,54.58
2024-05-09T06:43:19.611Z,52.90
2024-05-09T06:44:18.373Z,54.25
2024-05-09T06:45:18.304Z,53.46
2024-05-09T06:46:18.307Z,53.86
2024-05-09T06:47:18.445Z,53.83
2024-05-09T06:48:18.660Z,53.25
2024-05-09T06:49:18.529Z,51.20
2024-05-09T06:50:23.905Z,52.81
2024-05-09T06:51:19.353Z,52.83
2024-05-09T06:52:18.313Z,53.16
2024-05-09T06:53:18.377Z,52.91
2024-05-09T06:54:18.352Z,52.47
2024-05-09T06:55:18.321Z,52.40
2024-05-09T06:56:18.394Z,53.69
2024-05-09T06:57:18.354Z,53.93
2024-05-09T06:58:18.337Z,51.79
2024-05-09T06:59:18.475Z,54.18
2024-05-09T07:00:26.904Z,50.51
2024-05-09T07:01:19.388Z,50.61
2024-05-09T07:02:18.448Z,51.03
2024-05-09T07:03:19.470Z,50.91
2024-05-09T07:04:18.446Z,52.09
2024-05-09T07:05:18.490Z,53.64
2024-05-09T07:06:18.416Z,52.98
2024-05-09T07:07:18.360Z,51.63
2024-05-09T07:08:18.712Z,50.93
2024-05-09T07:09:18.364Z,54.19
2024-05-09T07:10:25.713Z,52.96
2024-05-09T07:11:19.418Z,53.00
2024-05-09T07:12:18.547Z,52.92
2024-05-09T07:13:18.358Z,53.39
2024-05-09T07:14:18.538Z,54.52
2024-05-09T07:15:18.370Z,53.11
2024-05-09T07:16:18.364Z,53.75
2024-05-09T07:17:18.454Z,53.20
2024-05-09T07:18:19.311Z,52.31
2024-05-09T07:19:18.563Z,52.94
2024-05-09T07:20:23.736Z,52.87
2024-05-09T07:21:19.562Z,52.90
2024-05-09T07:22:18.370Z,52.93
2024-05-09T07:23:18.653Z,52.88
2024-05-09T07:24:18.443Z,52.88
2024-05-09T07:25:18.381Z,55.10
2024-05-09T07:26:18.497Z,52.45
2024-05-09T07:27:18.365Z,52.78
2024-05-09T07:28:18.526Z,52.32
2024-05-09T07:29:18.450Z,54.55
2024-05-09T07:30:23.812Z,52.77
2024-05-09T07:31:19.460Z,52.82
2024-05-09T07:32:18.590Z,53.17
2024-05-09T07:33:19.367Z,53.33
2024-05-09T07:34:18.614Z,52.28
2024-05-09T07:35:18.488Z,51.87
2024-05-09T07:36:18.458Z,52.97
2024-05-09T07:37:18.446Z,53.10
2024-05-09T07:38:18.542Z,53.41
2024-05-09T07:39:18.645Z,53.07
2024-05-09T07:40:28.446Z,53.12
2024-05-09T07:41:19.507Z,53.07
2024-05-09T07:42:18.463Z,53.27
2024-05-09T07:43:18.478Z,53.87
2024-05-09T07:44:18.551Z,53.04
2024-05-09T07:47:14.416Z,54.19
2024-05-09T07:48:29.190Z,53.09
2024-05-09T07:51:31.643Z,53.23
2024-05-09T07:53:38.220Z,53.29
2024-05-09T07:54:19.724Z,53.32
2024-05-09T07:55:18.751Z,53.98
2024-05-09T07:56:20.118Z,55.29
2024-05-09T07:57:18.683Z,53.11
2024-05-09T07:58:18.596Z,53.87
2024-05-09T07:59:18.510Z,55.35
2024-05-09T08:00:23.811Z,55.98
2024-05-09T08:01:20.193Z,53.19
2024-05-09T08:02:18.656Z,53.92
2024-05-09T08:03:18.716Z,54.39
2024-05-09T08:04:18.626Z,54.38
2024-05-09T08:05:18.765Z,56.00
2024-05-09T08:06:18.532Z,55.55
2024-05-09T08:07:18.536Z,54.71
2024-05-09T08:08:18.572Z,54.04
2024-05-09T08:09:21.239Z,55.95
2024-05-09T08:10:22.249Z,54.44
2024-05-09T08:11:19.774Z,54.57
2024-05-09T08:12:18.646Z,54.69
2024-05-09T08:13:18.793Z,54.61
2024-05-09T08:14:18.655Z,53.80
2024-05-09T08:15:18.660Z,55.19
2024-05-09T08:16:18.921Z,54.93
2024-05-09T08:17:18.724Z,53.79
2024-05-09T08:18:18.707Z,52.76
2024-05-09T08:19:18.746Z,53.51
2024-05-09T08:20:26.899Z,53.34
2024-05-09T08:21:19.790Z,52.71
2024-05-09T08:22:18.696Z,53.40
2024-05-09T08:23:18.693Z,53.07
2024-05-09T08:24:18.672Z,52.60
2024-05-09T08:25:18.711Z,53.08
2024-05-09T08:26:18.682Z,52.54
2024-05-09T08:27:18.681Z,52.31
2024-05-09T08:28:18.822Z,53.23
2024-05-09T08:29:18.706Z,51.32
2024-05-09T08:30:24.948Z,53.95
2024-05-09T08:31:19.774Z,53.21
2024-05-09T08:32:18.702Z,52.36
2024-05-09T08:33:18.782Z,53.71
2024-05-09T08:34:18.800Z,53.79
2024-05-09T08:35:18.683Z,54.71
2024-05-09T08:36:18.705Z,54.60
2024-05-09T08:37:22.524Z,52.22
2024-05-09T08:38:19.713Z,52.27
2024-05-09T08:39:18.721Z,52.47
2024-05-09T08:40:27.279Z,53.24
2024-05-09T08:41:19.705Z,52.27
2024-05-09T08:42:18.695Z,52.60
2024-05-09T08:43:18.973Z,52.66
2024-05-09T08:44:18.706Z,51.62
2024-05-09T08:45:18.704Z,51.88
2024-05-09T08:46:19.086Z,51.25
2024-05-09T08:47:18.770Z,51.97
2024-05-09T08:48:19.060Z,52.11
2024-05-09T08:49:18.864Z,54.15
2024-05-09T08:50:28.920Z,52.30
2024-05-09T08:51:19.804Z,52.33
2024-05-09T08:52:18.814Z,52.32
2024-05-09T08:53:18.757Z,52.38
2024-05-09T08:54:18.771Z,49.60
2024-05-09T08:55:18.772Z,52.38
2024-05-09T08:56:18.757Z,52.79
2024-05-09T08:57:18.774Z,50.01
2024-05-09T08:58:18.840Z,53.63
2024-05-09T08:59:18.782Z,52.04
2024-05-09T09:00:29.249Z,51.41
2024-05-09T09:01:20.052Z,51.50
2024-05-09T09:02:19.221Z,51.64
2024-05-09T09:03:19.529Z,52.10
2024-05-09T09:04:19.113Z,51.57
2024-05-09T09:05:18.969Z,54.92
2024-05-09T09:06:18.787Z,52.14
2024-05-09T09:07:18.869Z,52.10
2024-05-09T09:08:18.787Z,51.06
2024-05-09T09:09:18.798Z,53.55
2024-05-09T09:10:28.962Z,53.02
2024-05-09T09:11:19.856Z,53.02
2024-05-09T09:12:18.820Z,52.59
2024-05-09T09:13:18.882Z,53.09
2024-05-09T09:14:18.813Z,51.89
2024-05-09T09:15:18.811Z,51.65
2024-05-09T09:16:19.082Z,52.36
2024-05-09T09:17:18.851Z,52.38
2024-05-09T09:18:19.297Z,50.65
2024-05-09T09:19:18.940Z,51.08
2024-05-09T09:20:25.975Z,53.33
2024-05-09T09:21:19.838Z,53.10
2024-05-09T09:22:18.906Z,53.68
2024-05-09T09:23:18.849Z,53.55
2024-05-09T09:24:18.829Z,52.52
2024-05-09T09:25:18.847Z,50.79
2024-05-09T09:26:18.848Z,50.41
2024-05-09T09:27:18.837Z,53.40
2024-05-09T09:28:18.862Z,52.35
2024-05-09T09:29:18.835Z,51.72
2024-05-09T09:30:31.661Z,52.73
2024-05-09T09:31:19.022Z,52.84
2024-05-09T09:32:18.939Z,52.85
2024-05-09T09:33:19.093Z,52.74
2024-05-09T09:34:19.041Z,51.75
2024-05-09T09:35:18.873Z,53.68
2024-05-09T09:36:18.851Z,52.81
2024-05-09T09:37:18.895Z,54.04
2024-05-09T09:38:18.876Z,54.10
2024-05-09T09:39:18.888Z,54.19
2024-05-09T09:40:22.294Z,54.23
2024-05-09T09:41:19.895Z,54.09
2024-05-09T09:42:18.919Z,54.25
2024-05-09T09:43:19.092Z,54.19
2024-05-09T09:44:18.867Z,53.60
2024-05-09T09:45:18.899Z,53.83
2024-05-09T09:46:19.006Z,53.80
2024-05-09T09:47:19.148Z,52.59
2024-05-09T09:48:18.972Z,54.66
2024-05-09T09:49:19.099Z,52.93
2024-05-09T09:50:27.280Z,50.78
2024-05-09T09:51:19.917Z,50.91
2024-05-09T09:52:19.004Z,51.38
2024-05-09T09:53:18.914Z,51.12
2024-05-09T09:54:18.916Z,51.69
2024-05-09T09:55:19.035Z,52.53
2024-05-09T09:56:18.911Z,53.92
2024-05-09T09:57:18.914Z,53.33
2024-05-09T09:58:18.972Z,52.16
2024-05-09T09:59:18.908Z,51.92
2024-05-09T10:00:24.547Z,52.85
2024-05-09T10:01:20.246Z,52.97
2024-05-09T10:02:19.343Z,53.02
2024-05-09T10:03:19.247Z,53.16
2024-05-09T10:04:19.137Z,52.33
2024-05-09T10:05:19.140Z,54.04
2024-05-09T10:06:18.947Z,53.86
2024-05-09T10:07:18.956Z,52.49
2024-05-09T10:08:18.923Z,54.14
2024-05-09T10:09:18.916Z,52.16
2024-05-09T10:10:26.913Z,52.11
2024-05-09T10:11:20.126Z,52.17
2024-05-09T10:12:18.958Z,51.86
2024-05-09T10:13:19.115Z,51.29
2024-05-09T10:14:18.942Z,52.72
2024-05-09T10:15:18.936Z,50.45
2024-05-09T10:16:19.174Z,52.08
2024-05-09T10:17:19.016Z,52.36
2024-05-09T10:18:19.067Z,52.18
2024-05-09T10:19:19.459Z,51.39
2024-05-09T10:20:24.674Z,53.00
2024-05-09T10:21:19.975Z,51.57
2024-05-09T10:22:19.033Z,53.23
2024-05-09T10:23:18.930Z,52.67
2024-05-09T10:24:18.957Z,51.98
2024-05-09T10:25:19.040Z,53.68
2024-05-09T10:26:18.945Z,51.26
2024-05-09T10:27:18.963Z,53.94
2024-05-09T10:28:19.068Z,53.20
2024-05-09T10:29:18.954Z,53.34
2024-05-09T10:30:26.088Z,52.56
2024-05-09T10:31:19.977Z,51.69
2024-05-09T10:32:19.097Z,52.61
2024-05-09T10:33:19.072Z,53.05
2024-05-09T10:34:19.410Z,51.03
2024-05-09T10:35:18.944Z,52.90
2024-05-09T10:36:18.943Z,52.15
2024-05-09T10:37:19.018Z,52.34
2024-05-09T10:38:18.970Z,51.66
2024-05-09T10:39:18.959Z,50.79
2024-05-09T10:40:26.074Z,51.22
2024-05-09T10:41:19.969Z,51.27
2024-05-09T10:42:18.992Z,51.24
2024-05-09T10:43:19.029Z,51.07
2024-05-09T10:44:18.973Z,52.34
2024-05-09T10:45:18.998Z,50.48
2024-05-09T10:46:19.377Z,53.81
2024-05-09T10:47:19.029Z,53.40
2024-05-09T10:48:19.083Z,52.67
2024-05-09T10:49:19.070Z,52.68
2024-05-09T10:50:25.680Z,52.82
2024-05-09T10:51:20.030Z,52.75
2024-05-09T10:52:19.109Z,52.77
2024-05-09T10:53:18.997Z,52.72
2024-05-09T10:54:18.990Z,51.81
2024-05-09T10:55:19.125Z,52.50
2024-05-09T10:56:19.005Z,53.56
2024-05-09T10:57:19.061Z,53.13
2024-05-09T10:58:19.114Z,52.80
2024-05-09T10:59:19.002Z,54.17
2024-05-09T11:00:27.542Z,51.56
2024-05-09T11:01:20.069Z,51.66
2024-05-09T11:02:19.099Z,52.16
2024-05-09T11:03:19.144Z,51.66
2024-05-09T11:04:19.169Z,52.64
2024-05-09T11:05:19.308Z,53.42
2024-05-09T11:06:19.043Z,53.63
2024-05-09T11:07:19.134Z,54.68
2024-05-09T11:08:19.019Z,54.35
2024-05-09T11:09:19.053Z,53.89
2024-05-09T11:10:27.263Z,53.30
2024-05-09T11:11:20.059Z,53.89
2024-05-09T11:12:21.302Z,52.73
2024-05-09T11:13:19.149Z,54.71
2024-05-09T11:14:19.030Z,54.73
2024-05-09T11:15:19.140Z,54.84
2024-05-09T11:16:19.276Z,53.81
2024-05-09T11:17:19.168Z,54.30
2024-05-09T11:18:20.946Z,55.48
2024-05-09T11:19:19.175Z,56.51
2024-05-09T11:20:26.768Z,54.81
2024-05-09T11:21:20.076Z,54.81
2024-05-09T11:22:19.124Z,55.10
2024-05-09T11:23:19.045Z,55.55
2024-05-09T11:24:19.070Z,53.06
2024-05-09T11:25:19.207Z,54.56
2024-05-09T11:26:19.053Z,53.33
2024-05-09T11:27:19.073Z,51.37
2024-05-09T11:28:19.195Z,52.38
2024-05-09T11:29:19.676Z,50.00
2024-05-09T11:30:26.953Z,52.19
2024-05-09T11:31:20.163Z,52.23
2024-05-09T11:32:19.078Z,51.29
2024-05-09T11:33:19.648Z,52.81
2024-05-09T11:34:19.153Z,53.54
2024-05-09T11:35:19.059Z,50.99
2024-05-09T11:36:19.086Z,54.23
2024-05-09T11:37:19.300Z,51.01
2024-05-09T11:38:19.111Z,52.62
2024-05-09T11:39:19.074Z,54.90
2024-05-09T11:40:25.298Z,52.26
2024-05-09T11:41:20.092Z,52.31
2024-05-09T11:42:19.082Z,52.39
2024-05-09T11:43:19.366Z,52.41
2024-05-09T11:44:19.090Z,52.99
2024-05-09T11:45:19.125Z,52.49
2024-05-09T11:46:19.274Z,53.94
2024-05-09T11:47:19.135Z,51.37
2024-05-09T11:48:19.172Z,50.00
2024-05-09T11:49:19.155Z,50.16
2024-05-09T11:50:26.636Z,50.43
2024-05-09T11:51:20.148Z,50.13
2024-05-09T11:52:19.182Z,50.38
2024-05-09T11:53:19.106Z,50.27
2024-05-09T11:54:19.107Z,52.15
2024-05-09T11:55:19.309Z,52.57
2024-05-09T11:56:19.107Z,51.77
2024-05-09T11:57:19.123Z,54.61
2024-05-09T11:58:19.494Z,51.49
2024-05-09T11:59:19.100Z,50.73
2024-05-09T12:00:28.974Z,50.42
2024-05-09T12:01:20.867Z,50.49
2024-05-09T12:02:19.363Z,50.59
2024-05-09T12:03:19.347Z,49.71
2024-05-09T12:04:19.361Z,51.23
2024-05-09T12:05:19.495Z,51.71
2024-05-09T12:06:19.134Z,54.15
2024-05-09T12:07:19.252Z,50.91
2024-05-09T12:08:19.164Z,53.06
2024-05-09T12:09:19.140Z,50.21
2024-05-09T12:10:22.467Z,50.71
2024-05-09T12:11:20.188Z,50.88
2024-05-09T12:12:19.133Z,50.97
2024-05-09T12:13:19.306Z,52.05
2024-05-09T12:14:19.125Z,52.61
2024-05-09T12:15:19.171Z,54.98
2024-05-09T12:16:19.272Z,53.65
2024-05-09T12:17:19.216Z,52.56
2024-05-09T12:18:19.176Z,53.77
2024-05-09T12:19:19.316Z,53.20
2024-05-09T12:20:28.287Z,53.82
2024-05-09T12:21:19.147Z,51.96
2024-05-09T12:22:19.281Z,53.91
2024-05-09T12:23:19.146Z,54.61
2024-05-09T12:24:19.359Z,54.18
2024-05-09T12:25:19.307Z,54.85
2024-05-09T12:26:19.149Z,52.40
2024-05-09T12:27:19.194Z,53.35
2024-05-09T12:28:19.250Z,51.45
2024-05-09T12:29:19.153Z,52.45
2024-05-09T12:30:32.106Z,52.01
2024-05-09T12:31:20.201Z,52.07
2024-05-09T12:32:19.256Z,52.15
2024-05-09T12:33:19.344Z,52.40
2024-05-09T12:34:19.216Z,53.13
2024-05-09T12:35:19.169Z,51.94
2024-05-09T12:36:19.171Z,50.00
2024-05-09T12:37:19.248Z,54.38
2024-05-09T12:38:19.167Z,54.90
2024-05-09T12:39:19.221Z,50.92
2024-05-09T12:40:30.611Z,54.22
2024-05-09T12:41:20.199Z,54.30
2024-05-09T12:42:26.782Z,54.29
2024-05-09T12:43:20.404Z,54.27
2024-05-09T12:44:19.195Z,52.76
2024-05-09T12:45:19.219Z,54.49
2024-05-09T12:46:19.339Z,54.67
2024-05-09T12:47:19.289Z,54.42
2024-05-09T12:48:19.340Z,54.80
2024-05-09T12:49:20.108Z,55.80